Time;durP1;ratioP1;P1;durP2;ratioP2;P2;SDS_P1;SDS_P2;PMS_P1;PMS_P2;Temp;Humidity;BMP_temperature;BMP_pressure;BME280_temperature;BME280_humidity;BME280_pressure;Samples;Min_cycle;Max_cycle;Signal;HPM_P1;HPM_P2
2022/09/19 00:01:29;;;;;;;7.43;1.70;;;10.60;85.40;;;;;;5074589;28;20965;-46
2022/09/19 00:04:01;;;;;;;0.80;0.70;;;10.60;85.20;;;;;;5073453;28;20468;-46
2022/09/19 00:06:29;;;;;;;1.93;0.97;;;10.70;85.00;;;;;;5066750;28;20461;-46
2022/09/19 00:08:58;;;;;;;1.70;0.60;;;10.80;84.80;;;;;;5076418;28;20525;-46
2022/09/19 00:11:26;;;;;;;8.03;1.00;;;10.80;84.80;;;;;;5077210;28;20888;-46
2022/09/19 00:13:54;;;;;;;1.63;1.53;;;10.80;84.70;;;;;;5060865;28;20857;-46
2022/09/19 00:16:27;;;;;;;1.50;1.00;;;10.90;84.60;;;;;;5073904;28;20469;-46
2022/09/19 00:18:57;;;;;;;8.47;1.40;;;10.90;84.10;;;;;;5064726;28;20597;-46
2022/09/19 00:21:30;;;;;;;3.53;0.90;;;10.90;83.60;;;;;;5076114;28;20505;-46
2022/09/19 00:26:45;;;;;;;3.70;1.03;;;10.90;83.70;;;;;;5073736;28;20898;-46
2022/09/19 00:29:14;;;;;;;2.67;0.70;;;11.00;84.00;;;;;;5071211;28;20904;-46
2022/09/19 00:31:43;;;;;;;4.33;1.10;;;11.00;84.10;;;;;;5066242;28;20461;-46
2022/09/19 00:34:11;;;;;;;2.33;1.20;;;11.00;83.40;;;;;;5076274;28;20548;-46
2022/09/19 00:36:38;;;;;;;2.13;1.10;;;11.00;83.20;;;;;;5065752;28;21022;-46
2022/09/19 00:39:07;;;;;;;1.80;0.87;;;11.10;83.20;;;;;;5075768;28;20596;-46
2022/09/19 00:41:36;;;;;;;1.03;0.73;;;11.10;83.00;;;;;;5058372;28;20457;-46
2022/09/19 00:44:23;;;;;;;1.63;0.80;;;11.10;82.90;;;;;;5067501;28;20591;-46
2022/09/19 00:47:10;;;;;;;3.40;0.73;;;11.20;82.90;;;;;;5075906;28;20456;-46
2022/09/19 00:49:42;;;;;;;1.33;0.70;;;11.20;82.70;;;;;;5078135;28;20986;-46
2022/09/19 00:52:15;;;;;;;3.00;1.40;;;11.20;82.20;;;;;;5075727;28;20457;-48
2022/09/19 00:54:46;;;;;;;1.83;1.00;;;11.30;82.30;;;;;;5060822;28;20504;-48
2022/09/19 00:57:14;;;;;;;5.43;1.03;;;11.20;83.00;;;;;;5072735;28;20522;-48
2022/09/19 00:59:45;;;;;;;2.00;0.80;;;11.20;82.50;;;;;;5062272;28;20538;-48
2022/09/19 01:02:14;;;;;;;3.33;1.00;;;11.30;82.70;;;;;;5057465;28;20456;-48
2022/09/19 01:04:43;;;;;;;4.10;1.30;;;11.30;82.80;;;;;;5077344;28;20488;-48
2022/09/19 01:07:43;;;;;;;2.17;0.93;;;11.30;82.60;;;;;;5077050;28;20858;-48
2022/09/19 01:10:29;;;;;;;4.80;1.20;;;11.30;82.40;;;;;;5070471;28;20495;-48
2022/09/19 01:13:20;;;;;;;3.17;0.80;;;11.30;82.30;;;;;;5075040;28;20500;-48
2022/09/19 01:16:02;;;;;;;2.30;1.30;;;11.20;83.00;;;;;;5074409;28;20813;-48
2022/09/19 01:18:38;;;;;;;1.00;0.70;;;11.20;82.90;;;;;;5076489;28;20544;-48
2022/09/19 01:21:38;;;;;;;2.20;0.80;;;11.30;82.90;;;;;;5052369;28;20501;-48
2022/09/19 01:24:19;;;;;;;4.07;1.10;;;11.20;83.60;;;;;;5061316;28;20518;-48
2022/09/19 01:26:49;;;;;;;2.77;1.37;;;11.30;83.00;;;;;;5075296;28;20464;-49
2022/09/19 01:29:27;;;;;;;6.30;1.10;;;11.30;83.10;;;;;;5081608;28;20468;-48
2022/09/19 01:31:57;;;;;;;5.00;0.87;;;11.30;82.90;;;;;;5077875;28;20553;-48
2022/09/19 01:34:33;;;;;;;4.33;1.00;;;11.30;82.60;;;;;;5075719;28;20465;-49
2022/09/19 01:37:16;;;;;;;2.70;0.80;;;11.40;82.50;;;;;;5077505;28;20526;-48
2022/09/19 01:39:46;;;;;;;5.53;1.17;;;11.40;82.40;;;;;;5077773;28;20542;-48
2022/09/19 01:42:18;;;;;;;4.30;1.20;;;11.40;81.90;;;;;;5062518;28;20556;-48
2022/09/19 01:44:45;;;;;;;2.30;1.47;;;11.50;82.00;;;;;;5080424;28;20462;-48
2022/09/19 01:47:42;;;;;;;2.03;1.07;;;11.50;82.20;;;;;;5061324;28;20469;-48
2022/09/19 01:50:14;;;;;;;2.70;1.03;;;11.40;82.40;;;;;;5059060;28;20457;-48
2022/09/19 01:53:22;;;;;;;5.63;1.23;;;11.50;82.40;;;;;;5074776;28;20477;-48
2022/09/19 01:56:04;;;;;;;2.30;1.07;;;11.50;82.40;;;;;;5063520;28;21018;-48
2022/09/19 01:58:57;;;;;;;5.60;1.33;;;11.50;82.30;;;;;;5080566;28;20465;-49
2022/09/19 02:01:50;;;;;;;4.07;1.23;;;11.40;83.10;;;;;;5060567;28;20469;-48
2022/09/19 02:04:25;;;;;;;6.17;1.50;;;11.50;82.50;;;;;;5076871;28;20540;-48
2022/09/19 02:07:01;;;;;;;5.70;1.20;;;11.50;82.30;;;;;;5051032;28;20457;-48
2022/09/19 02:09:41;;;;;;;6.37;2.23;;;11.50;82.50;;;;;;5074625;28;20527;-48
2022/09/19 02:12:10;;;;;;;4.33;1.53;;;11.50;82.40;;;;;;5059359;28;20469;-48
2022/09/19 02:14:41;;;;;;;6.00;1.40;;;11.60;82.30;;;;;;5078158;28;20945;-48
2022/09/19 02:17:12;;;;;;;2.60;1.10;;;11.50;82.80;;;;;;5078096;28;20520;-48
2022/09/19 02:19:43;;;;;;;1.20;1.10;;;11.60;82.20;;;;;;5067660;28;20568;-48
2022/09/19 02:22:20;;;;;;;3.50;1.27;;;11.60;82.40;;;;;;5079706;28;20481;-49
2022/09/19 02:24:49;;;;;;;3.00;1.00;;;11.50;83.00;;;;;;5074247;28;20560;-49
2022/09/19 02:27:23;;;;;;;7.03;1.47;;;11.60;82.40;;;;;;5076989;28;20514;-47
2022/09/19 02:29:56;;;;;;;4.13;1.50;;;11.60;82.50;;;;;;5085938;28;20455;-46
2022/09/19 02:32:24;;;;;;;3.13;1.43;;;11.60;82.10;;;;;;5086829;28;20554;-46
2022/09/19 02:34:53;;;;;;;5.50;1.27;;;11.70;82.40;;;;;;5071422;28;20538;-46
2022/09/19 02:37:42;;;;;;;5.00;1.20;;;11.70;82.20;;;;;;5088618;28;20448;-46
2022/09/19 02:40:45;;;;;;;5.90;1.30;;;11.70;82.60;;;;;;5071799;28;20547;-46
2022/09/19 02:43:36;;;;;;;2.50;1.50;;;11.60;82.70;;;;;;5078945;28;20501;-46
2022/09/19 02:46:11;;;;;;;5.17;1.30;;;11.60;82.80;;;;;;5073841;28;20437;-46
2022/09/19 02:48:50;;;;;;;4.63;1.10;;;11.60;82.70;;;;;;5073533;28;20500;-46
2022/09/19 02:51:24;;;;;;;3.87;1.70;;;11.70;82.60;;;;;;5085639;28;20461;-46
2022/09/19 02:54:00;;;;;;;2.53;1.00;;;11.70;82.40;;;;;;5086877;28;21129;-46
2022/09/19 02:56:33;;;;;;;6.83;1.17;;;11.70;82.40;;;;;;5085108;28;20496;-47
2022/09/19 02:59:16;;;;;;;3.70;1.10;;;11.70;82.30;;;;;;5082452;28;20498;-47
2022/09/19 03:01:47;;;;;;;5.07;0.97;;;11.70;82.40;;;;;;5085683;28;20457;-47
2022/09/19 03:04:19;;;;;;;3.07;1.10;;;11.70;82.50;;;;;;5085669;28;20953;-46
2022/09/19 03:06:54;;;;;;;5.37;1.53;;;11.60;82.70;;;;;;5088253;28;20922;-46
2022/09/19 03:09:26;;;;;;;5.50;1.43;;;11.60;82.90;;;;;;5067515;28;20472;-46
2022/09/19 03:12:05;;;;;;;7.40;1.63;;;11.60;83.20;;;;;;5074647;28;20479;-47
2022/09/19 03:14:32;;;;;;;4.87;1.20;;;11.50;83.10;;;;;;5085850;28;21327;-46
2022/09/19 03:17:01;;;;;;;1.90;1.13;;;11.60;83.20;;;;;;5066401;28;20491;-46
2022/09/19 03:19:30;;;;;;;3.70;1.50;;;11.60;82.70;;;;;;5069221;28;20492;-46
2022/09/19 03:21:58;;;;;;;5.77;1.27;;;11.50;83.80;;;;;;5085006;28;20453;-47
2022/09/19 03:24:26;;;;;;;2.57;1.20;;;11.50;84.10;;;;;;5073866;28;21230;-46
2022/09/19 03:26:52;;;;;;;5.27;1.50;;;11.60;83.70;;;;;;5086302;28;20488;-46
2022/09/19 03:29:19;;;;;;;3.50;1.20;;;11.50;83.50;;;;;;5076560;28;20490;-47
2022/09/19 03:31:47;;;;;;;1.87;1.00;;;11.50;83.50;;;;;;5084362;28;20450;-46
2022/09/19 03:34:15;;;;;;;4.60;1.60;;;11.50;83.80;;;;;;5065469;28;20544;-46
2022/09/19 03:36:43;;;;;;;6.43;1.33;;;11.50;83.90;;;;;;5086354;28;20499;-46
2022/09/19 03:39:09;;;;;;;2.77;1.20;;;11.60;83.40;;;;;;5084897;28;20499;-46
2022/09/19 03:41:38;;;;;;;3.17;1.13;;;11.60;83.70;;;;;;5066945;28;20461;-46
2022/09/19 03:44:05;;;;;;;2.50;1.10;;;11.60;84.10;;;;;;5085510;28;20483;-47
2022/09/19 03:46:32;;;;;;;3.70;1.80;;;11.60;84.00;;;;;;5087625;28;20453;-46
2022/09/19 03:49:00;;;;;;;4.23;2.63;;;11.60;83.80;;;;;;5083727;28;22304;-47
2022/09/19 03:51:29;;;;;;;6.93;1.70;;;11.60;83.90;;;;;;5066903;28;20548;-46
2022/09/19 03:53:56;;;;;;;10.53;1.90;;;11.60;83.70;;;;;;5088275;28;20453;-46
2022/09/19 03:56:22;;;;;;;4.30;1.50;;;11.60;83.90;;;;;;5069503;28;20512;-46
2022/09/19 03:58:49;;;;;;;7.30;2.80;;;11.60;83.80;;;;;;5077440;28;20527;-48
2022/09/19 04:01:16;;;;;;;3.93;1.70;;;11.60;83.80;;;;;;5071699;28;20915;-47
2022/09/19 04:03:48;;;;;;;2.87;1.50;;;11.70;83.60;;;;;;5069626;28;20506;-48
2022/09/19 04:06:16;;;;;;;3.43;2.13;;;11.70;83.40;;;;;;5071609;28;20523;-47
2022/09/19 04:08:43;;;;;;;5.90;1.87;;;11.70;83.50;;;;;;5057278;28;20509;-47
2022/09/19 04:11:10;;;;;;;5.37;2.40;;;11.70;83.50;;;;;;5069691;28;20502;-48
2022/09/19 04:13:38;;;;;;;4.63;1.47;;;11.70;83.70;;;;;;5070575;28;20493;-48
2022/09/19 04:16:06;;;;;;;2.50;1.33;;;11.70;83.80;;;;;;5070369;28;20898;-47
2022/09/19 04:18:34;;;;;;;2.47;1.40;;;11.70;83.60;;;;;;5057727;28;20475;-47
2022/09/19 04:21:00;;;;;;;5.40;1.80;;;11.70;83.80;;;;;;5051197;28;20517;-48
2022/09/19 04:23:27;;;;;;;6.80;2.00;;;11.60;84.00;;;;;;5048658;28;20967;-47
2022/09/19 04:25:54;;;;;;;3.70;1.30;;;11.70;84.10;;;;;;5052368;28;21107;-48
2022/09/19 04:28:21;;;;;;;3.50;1.30;;;11.60;84.30;;;;;;5051948;28;20473;-47
2022/09/19 04:30:48;;;;;;;5.13;1.97;;;11.70;84.10;;;;;;5053115;28;20960;-48
2022/09/19 04:33:15;;;;;;;5.17;1.93;;;11.70;84.00;;;;;;5046436;28;20553;-47
2022/09/19 04:35:44;;;;;;;4.07;1.70;;;11.70;84.10;;;;;;5053118;28;20463;-48
2022/09/19 04:38:17;;;;;;;6.30;1.80;;;11.70;83.90;;;;;;5041630;28;20557;-47
2022/09/19 04:40:46;;;;;;;6.20;1.60;;;11.70;83.90;;;;;;5047031;28;20528;-47
2022/09/19 04:43:16;;;;;;;10.10;2.00;;;11.70;83.90;;;;;;5043340;28;20458;-47
2022/09/19 04:45:48;;;;;;;4.00;1.60;;;11.80;84.10;;;;;;5042888;28;20981;-47
2022/09/19 04:48:15;;;;;;;5.53;2.03;;;11.70;84.30;;;;;;5048576;28;20458;-48
2022/09/19 04:50:44;;;;;;;5.13;2.10;;;11.70;84.60;;;;;;5034508;28;20576;-48
2022/09/19 04:53:16;;;;;;;3.40;1.20;;;11.70;84.70;;;;;;5058957;28;20492;-48
2022/09/19 04:55:43;;;;;;;7.53;1.90;;;11.70;84.60;;;;;;5051586;28;20486;-47
2022/09/19 04:58:10;;;;;;;4.20;1.60;;;11.80;84.50;;;;;;5066321;28;21025;-48
2022/09/19 05:00:38;;;;;;;4.10;1.80;;;11.80;84.50;;;;;;5067955;28;20517;-47
2022/09/19 05:03:12;;;;;;;5.17;2.00;;;11.80;84.70;;;;;;5068807;28;20471;-47
2022/09/19 05:05:44;;;;;;;4.90;1.97;;;11.80;84.50;;;;;;5072891;28;20539;-48
2022/09/19 05:08:12;;;;;;;6.23;2.27;;;11.70;85.10;;;;;;5056201;28;20543;-47
2022/09/19 05:10:39;;;;;;;5.33;1.83;;;11.70;85.30;;;;;;5072478;28;21035;-47
2022/09/19 05:13:11;;;;;;;3.97;2.00;;;11.70;85.20;;;;;;5053833;28;20833;-47
2022/09/19 05:15:41;;;;;;;10.90;2.30;;;11.80;85.10;;;;;;5067130;28;21048;-48
2022/09/19 05:18:10;;;;;;;4.80;1.90;;;11.80;85.10;;;;;;5052519;28;20522;-48
2022/09/19 05:20:38;;;;;;;7.30;2.03;;;11.80;84.90;;;;;;5070578;28;20996;-47
2022/09/19 05:23:06;;;;;;;6.87;2.07;;;11.80;85.10;;;;;;5069760;28;20485;-47
2022/09/19 05:25:38;;;;;;;7.33;2.57;;;11.80;84.90;;;;;;5070882;28;20545;-48
2022/09/19 05:28:06;;;;;;;7.13;2.57;;;11.80;84.90;;;;;;5065954;28;20544;-48
2022/09/19 05:30:34;;;;;;;6.43;1.73;;;11.80;84.90;;;;;;5073306;28;20499;-47
2022/09/19 05:33:02;;;;;;;4.90;1.83;;;11.80;84.90;;;;;;5063726;28;20551;-48
2022/09/19 05:35:31;;;;;;;5.80;2.20;;;11.80;85.10;;;;;;5071525;28;20840;-48
2022/09/19 05:37:59;;;;;;;3.87;1.90;;;11.80;85.10;;;;;;5075159;28;20497;-47
2022/09/19 05:40:26;;;;;;;6.70;2.00;;;11.80;84.90;;;;;;5077720;28;20592;-47
2022/09/19 05:43:00;;;;;;;3.47;2.30;;;11.80;84.10;;;;;;5076624;28;20826;-47
2022/09/19 05:45:27;;;;;;;4.83;1.70;;;11.80;83.90;;;;;;5073861;28;20462;-48
2022/09/19 05:48:04;;;;;;;4.43;2.10;;;11.90;84.00;;;;;;5057217;28;20469;-47
2022/09/19 05:50:32;;;;;;;4.43;2.27;;;11.90;83.70;;;;;;5075775;28;20797;-48
2022/09/19 05:55:45;;;;;;;6.67;2.67;;;11.80;84.20;;;;;;5077355;28;20480;-48
2022/09/19 05:58:13;;;;;;;9.73;2.60;;;11.90;84.40;;;;;;5075686;28;20514;-47
2022/09/19 06:00:39;;;;;;;7.20;2.57;;;11.90;84.30;;;;;;5078604;28;20490;-47
2022/09/19 06:03:09;;;;;;;7.07;1.90;;;11.90;84.30;;;;;;5075778;28;20826;-47
2022/09/19 06:05:43;;;;;;;10.17;2.40;;;11.90;84.40;;;;;;5077325;28;20498;-48
2022/09/19 06:08:11;;;;;;;11.70;3.83;;;11.90;84.50;;;;;;5058869;28;20475;-48
2022/09/19 06:10:41;;;;;;;5.30;2.30;;;11.90;84.40;;;;;;5069841;28;20567;-47
2022/09/19 06:13:12;;;;;;;5.60;1.97;;;12.00;83.90;;;;;;5077104;28;20547;-47
2022/09/19 06:15:39;;;;;;;5.33;2.17;;;12.00;83.90;;;;;;5075791;28;20464;-47
2022/09/19 06:18:09;;;;;;;7.73;2.43;;;12.00;84.20;;;;;;5068811;28;20450;-47
2022/09/19 06:20:37;;;;;;;10.10;2.50;;;12.10;83.70;;;;;;5071953;28;20521;-48
2022/09/19 06:23:06;;;;;;;7.50;2.40;;;12.10;83.70;;;;;;5079616;28;20457;-48
2022/09/19 06:25:34;;;;;;;2.20;2.00;;;12.10;83.40;;;;;;5056503;28;20456;-47
2022/09/19 06:28:04;;;;;;;6.50;1.83;;;12.10;83.90;;;;;;5055221;28;20489;-47
2022/09/19 06:30:31;;;;;;;4.40;1.60;;;12.10;84.10;;;;;;5078194;28;20469;-47
2022/09/19 06:32:58;;;;;;;4.73;2.00;;;12.10;84.30;;;;;;5078165;28;21233;-48
2022/09/19 06:35:28;;;;;;;4.67;2.07;;;12.30;83.90;;;;;;5060997;28;20457;-49
2022/09/19 06:38:00;;;;;;;5.63;2.00;;;12.30;84.00;;;;;;5075020;28;20838;-47
2022/09/19 06:40:29;;;;;;;7.93;2.03;;;12.30;84.00;;;;;;5076184;28;20940;-48
2022/09/19 06:43:03;;;;;;;2.57;2.27;;;12.30;84.10;;;;;;5078738;28;20460;-48
2022/09/19 06:45:37;;;;;;;4.70;1.70;;;12.40;83.60;;;;;;5076570;28;20954;-47
2022/09/19 06:48:06;;;;;;;7.00;2.33;;;12.40;83.60;;;;;;5062041;28;20546;-48
2022/09/19 06:50:33;;;;;;;9.03;2.20;;;12.40;83.40;;;;;;5062752;28;20480;-47
2022/09/19 06:53:00;;;;;;;4.97;2.03;;;12.40;83.60;;;;;;5071770;28;20469;-48
2022/09/19 06:55:28;;;;;;;6.73;2.13;;;12.50;83.50;;;;;;5067371;28;20472;-48
2022/09/19 06:58:00;;;;;;;7.23;2.40;;;12.50;83.70;;;;;;5074851;28;20521;-47
2022/09/19 07:00:28;;;;;;;8.50;2.20;;;12.50;83.20;;;;;;5060468;28;20540;-47
2022/09/19 07:03:00;;;;;;;5.90;2.57;;;12.60;83.10;;;;;;5068994;28;20841;-48
2022/09/19 07:05:30;;;;;;;5.03;2.17;;;12.60;83.20;;;;;;5055641;28;20543;-47
2022/09/19 07:07:57;;;;;;;7.67;2.10;;;12.60;82.40;;;;;;5064040;28;20492;-47
2022/09/19 07:10:26;;;;;;;3.53;2.13;;;12.60;82.50;;;;;;5075632;28;20504;-48
2022/09/19 07:12:55;;;;;;;6.00;2.37;;;12.60;82.70;;;;;;5066751;28;20863;-47
2022/09/19 07:15:23;;;;;;;4.53;2.33;;;12.60;82.60;;;;;;5060745;28;20461;-47
2022/09/19 07:17:53;;;;;;;5.77;2.43;;;12.70;82.40;;;;;;5072633;28;20749;-47
2022/09/19 07:20:20;;;;;;;4.90;2.47;;;12.70;82.40;;;;;;5070935;28;20524;-48
2022/09/19 07:22:47;;;;;;;4.00;1.80;;;12.80;81.60;;;;;;5049948;28;20618;-48
2022/09/19 07:25:14;;;;;;;8.10;2.30;;;12.80;81.70;;;;;;5052165;28;20457;-47
2022/09/19 07:27:44;;;;;;;5.70;2.10;;;12.90;82.00;;;;;;5075550;28;20469;-48
2022/09/19 07:30:11;;;;;;;4.93;2.07;;;12.90;82.00;;;;;;5058622;28;21017;-46
2022/09/19 07:32:38;;;;;;;2.97;2.30;;;13.00;81.90;;;;;;5060577;28;20913;-46
2022/09/19 07:35:05;;;;;;;7.50;2.07;;;13.00;82.10;;;;;;5071003;28;20883;-46
2022/09/19 07:37:32;;;;;;;6.50;2.23;;;13.00;82.00;;;;;;5059685;28;20456;-46
2022/09/19 07:39:59;;;;;;;2.30;1.90;;;13.10;81.40;;;;;;5054525;28;20456;-45
2022/09/19 07:42:36;;;;;;;4.80;2.13;;;13.20;81.50;;;;;;5073527;28;20904;-45
2022/09/19 07:45:04;;;;;;;3.23;2.20;;;13.20;81.50;;;;;;5059269;28;20459;-45
2022/09/19 07:47:33;;;;;;;4.00;2.30;;;13.30;81.30;;;;;;5075611;28;20465;-45
2022/09/19 07:49:59;;;;;;;3.43;2.37;;;13.30;81.10;;;;;;5073992;28;20460;-46
2022/09/19 07:52:26;;;;;;;4.60;2.90;;;13.30;80.70;;;;;;5072480;28;20866;-45
2022/09/19 07:54:53;;;;;;;5.57;2.50;;;13.30;81.00;;;;;;5069914;28;20465;-45
2022/09/19 07:57:19;;;;;;;3.50;2.37;;;13.40;80.10;;;;;;5068420;28;20899;-45
2022/09/19 07:59:47;;;;;;;2.87;2.50;;;13.40;80.40;;;;;;5071424;28;20464;-45
2022/09/19 08:02:14;;;;;;;5.37;2.37;;;13.40;80.60;;;;;;5053552;28;20488;-45
2022/09/19 08:04:41;;;;;;;9.47;2.30;;;13.50;79.80;;;;;;5070959;28;20458;-45
2022/09/19 08:07:07;;;;;;;2.83;2.03;;;13.50;79.90;;;;;;5067507;28;21028;-45
2022/09/19 08:09:34;;;;;;;4.30;2.50;;;13.50;79.70;;;;;;5071145;28;21457;-45
2022/09/19 08:12:06;;;;;;;3.40;2.93;;;13.60;79.40;;;;;;5071500;28;20909;-46
2022/09/19 08:14:33;;;;;;;2.97;2.10;;;13.60;79.70;;;;;;5074633;28;20876;-45
2022/09/19 08:17:00;;;;;;;1.97;1.87;;;13.60;79.40;;;;;;5074690;28;20464;-45
2022/09/19 08:19:28;;;;;;;6.63;3.03;;;13.60;79.20;;;;;;5069567;28;20935;-45
2022/09/19 08:21:56;;;;;;;5.07;2.50;;;13.60;79.40;;;;;;5056599;28;20561;-46
2022/09/19 08:24:22;;;;;;;4.03;2.23;;;13.60;80.00;;;;;;5073813;28;20461;-46
2022/09/19 08:26:50;;;;;;;3.53;2.57;;;13.60;79.90;;;;;;5054873;28;20461;-45
2022/09/19 08:29:16;;;;;;;4.53;2.03;;;13.70;80.10;;;;;;5071954;28;20465;-45
2022/09/19 08:31:43;;;;;;;5.77;1.97;;;13.70;80.20;;;;;;5073908;28;20854;-45
2022/09/19 08:34:10;;;;;;;5.50;2.10;;;13.80;80.00;;;;;;5068788;28;20465;-45
2022/09/19 08:36:36;;;;;;;3.50;1.90;;;13.90;79.20;;;;;;5073952;28;20469;-46
2022/09/19 08:39:03;;;;;;;7.03;2.83;;;13.90;79.00;;;;;;5070795;28;21040;-45
2022/09/19 08:41:38;;;;;;;4.40;2.00;;;13.90;78.80;;;;;;5074297;28;20485;-45
2022/09/19 08:44:18;;;;;;;5.57;2.40;;;13.90;79.00;;;;;;5071815;28;20992;-45
2022/09/19 08:47:13;;;;;;;5.20;2.03;;;14.00;79.00;;;;;;5074685;28;20461;-45
2022/09/19 08:49:45;;;;;;;6.67;2.63;;;13.90;79.20;;;;;;5067615;28;20455;-45
2022/09/19 08:52:27;;;;;;;6.00;3.10;;;13.90;79.70;;;;;;5062891;28;20989;-45
2022/09/19 08:54:55;;;;;;;10.00;3.00;;;13.90;80.30;;;;;;5073736;28;20561;-45
2022/09/19 08:57:39;;;;;;;5.40;2.93;;;13.90;80.50;;;;;;5074526;28;20504;-45
2022/09/19 09:00:30;;;;;;;5.13;3.10;;;13.90;80.90;;;;;;5066407;28;20450;-46
2022/09/19 09:03:11;;;;;;;5.50;3.40;;;13.90;80.90;;;;;;5071391;28;21027;-45
2022/09/19 09:06:00;;;;;;;6.50;3.07;;;14.00;81.40;;;;;;5063100;28;20460;-45
2022/09/19 09:08:30;;;;;;;5.20;3.03;;;14.10;80.60;;;;;;5062589;28;20538;-45
2022/09/19 09:11:26;;;;;;;3.43;2.97;;;14.20;79.60;;;;;;5076650;28;20449;-45
2022/09/19 09:14:37;;;;;;;8.20;2.43;;;14.30;79.00;;;;;;5074283;28;20453;-45
2022/09/19 09:17:27;;;;;;;5.50;2.33;;;14.30;78.90;;;;;;5065849;28;20552;-46
2022/09/19 09:20:13;;;;;;;3.33;2.37;;;14.30;78.70;;;;;;5065848;28;20509;-45
2022/09/19 09:22:43;;;;;;;6.40;2.20;;;14.30;78.40;;;;;;5075165;28;20934;-45
2022/09/19 09:25:23;;;;;;;4.57;2.37;;;14.40;78.40;;;;;;5077453;28;21055;-46
2022/09/19 09:28:14;;;;;;;5.93;1.80;;;14.50;78.40;;;;;;5077422;28;20464;-45
2022/09/19 09:30:47;;;;;;;3.63;2.03;;;14.50;78.30;;;;;;5073675;28;20454;-46
2022/09/19 09:33:27;;;;;;;3.90;2.17;;;14.50;77.50;;;;;;5074346;28;20457;-45
2022/09/19 09:36:19;;;;;;;5.00;2.50;;;14.50;78.40;;;;;;5067143;28;20936;-45
2022/09/19 09:38:54;;;;;;;3.70;2.67;;;14.50;77.90;;;;;;5073421;28;20453;-45
2022/09/19 09:41:50;;;;;;;7.57;2.30;;;14.50;77.90;;;;;;5073839;28;20488;-46
2022/09/19 09:44:26;;;;;;;3.70;2.30;;;14.50;78.20;;;;;;5078255;28;20509;-45
2022/09/19 09:47:02;;;;;;;4.10;2.27;;;14.50;78.30;;;;;;5058069;28;20453;-45
2022/09/19 09:49:30;;;;;;;2.77;2.40;;;14.60;77.80;;;;;;5056526;28;20530;-45
2022/09/19 09:52:14;;;;;;;4.10;2.30;;;14.60;77.80;;;;;;5074200;28;20897;-46
2022/09/19 09:58:24;;;;;;;10.53;2.77;;;14.70;77.90;;;;;;5036473;28;20527;-45
2022/09/19 10:04:06;;;;;;;9.23;3.40;;;14.90;77.20;;;;;;5077992;28;20929;-45
2022/09/19 10:06:52;;;;;;;6.37;3.10;;;15.00;76.70;;;;;;5058952;28;20456;-45
2022/09/19 10:09:25;;;;;;;4.63;3.20;;;15.00;76.60;;;;;;5063795;28;20954;-45
2022/09/19 10:12:11;;;;;;;6.60;3.07;;;15.00;74.70;;;;;;5057238;28;20488;-45
2022/09/19 10:15:03;;;;;;;11.00;3.20;;;15.00;76.00;;;;;;5076566;28;20531;-45
2022/09/19 10:17:39;;;;;;;7.73;2.43;;;15.00;77.00;;;;;;5071392;28;20464;-45
2022/09/19 10:20:15;;;;;;;3.80;2.43;;;15.10;75.90;;;;;;5069936;28;21029;-45
2022/09/19 10:22:42;;;;;;;4.50;3.17;;;15.20;75.40;;;;;;5052712;28;20601;-45
2022/09/19 10:25:12;;;;;;;8.50;3.00;;;15.20;74.60;;;;;;5073978;28;20461;-46
2022/09/19 10:27:41;;;;;;;7.40;3.07;;;15.10;75.30;;;;;;5072919;28;20507;-46
2022/09/19 10:30:19;;;;;;;6.67;2.93;;;15.10;75.90;;;;;;5061020;28;20483;-46
2022/09/19 10:32:47;;;;;;;6.97;2.60;;;15.20;74.70;;;;;;5053198;28;20456;-45
2022/09/19 10:35:35;;;;;;;8.47;3.00;;;15.30;74.70;;;;;;5057567;28;20811;-46
2022/09/19 10:38:01;;;;;;;7.83;3.37;;;15.40;75.20;;;;;;5067418;28;20518;-46
2022/09/19 10:40:30;;;;;;;9.80;3.80;;;15.50;73.90;;;;;;5060195;28;20520;-45
2022/09/19 10:42:59;;;;;;;7.40;3.13;;;15.60;73.10;;;;;;5067099;28;20579;-45
2022/09/19 10:45:30;;;;;;;7.70;2.47;;;15.60;73.40;;;;;;5076731;28;20461;-46
2022/09/19 10:48:10;;;;;;;3.20;2.30;;;15.70;72.60;;;;;;5080266;28;20460;-46
2022/09/19 10:50:47;;;;;;;6.87;2.60;;;15.80;72.40;;;;;;5075681;28;20456;-45
2022/09/19 10:53:35;;;;;;;2.67;2.23;;;15.90;72.00;;;;;;5071454;28;20468;-46
2022/09/19 10:56:22;;;;;;;2.80;2.33;;;16.00;71.60;;;;;;5075671;28;20499;-46
2022/09/19 10:59:04;;;;;;;4.47;2.60;;;15.90;71.90;;;;;;5075232;28;20481;-46
2022/09/19 11:01:30;;;;;;;4.70;2.83;;;15.90;72.40;;;;;;5076743;28;20895;-46
2022/09/19 11:04:02;;;;;;;5.23;2.63;;;15.80;73.10;;;;;;5070386;28;20544;-46
2022/09/19 11:06:31;;;;;;;5.37;2.27;;;15.80;72.50;;;;;;5058753;28;20643;-46
2022/09/19 11:08:59;;;;;;;7.77;2.10;;;15.80;72.60;;;;;;5076399;28;20457;-46
2022/09/19 11:11:38;;;;;;;7.80;1.87;;;15.90;72.60;;;;;;5058864;28;20455;-46
2022/09/19 11:14:29;;;;;;;5.17;1.70;;;15.90;72.30;;;;;;5076367;28;20453;-46
2022/09/19 11:17:00;;;;;;;3.00;2.70;;;15.90;72.20;;;;;;5074352;28;20468;-46
2022/09/19 11:19:52;;;;;;;9.90;2.07;;;15.90;72.20;;;;;;5072828;28;20445;-46
2022/09/19 11:22:36;;;;;;;7.37;2.20;;;15.90;72.40;;;;;;5073518;28;20593;-46
2022/09/19 11:25:21;;;;;;;8.40;2.20;;;15.80;72.20;;;;;;5074281;28;20496;-46
2022/09/19 11:28:13;;;;;;;3.20;1.90;;;15.70;73.20;;;;;;5070903;28;20512;-46
2022/09/19 11:31:14;;;;;;;5.47;1.90;;;15.70;73.00;;;;;;5073970;28;20489;-45
2022/09/19 11:34:04;;;;;;;6.70;2.03;;;15.80;72.30;;;;;;5068834;28;20539;-46
2022/09/19 11:37:19;;;;;;;4.10;1.70;;;15.80;72.10;;;;;;5075470;28;20540;-45
2022/09/19 11:40:04;;;;;;;2.83;1.43;;;15.80;72.30;;;;;;5069043;28;20461;-45
2022/09/19 11:43:19;;;;;;;8.00;1.97;;;15.80;72.60;;;;;;5071280;28;20551;-46
2022/09/19 11:46:19;;;;;;;7.10;1.60;;;15.80;72.80;;;;;;5010164;28;20460;-46
2022/09/19 11:48:54;;;;;;;3.83;2.50;;;15.70;72.40;;;;;;5071020;28;20550;-45
2022/09/19 11:51:36;;;;;;;3.83;1.90;;;15.80;71.10;;;;;;5072237;28;20537;-45
2022/09/19 11:54:09;;;;;;;5.20;2.27;;;15.80;71.30;;;;;;5071017;28;20448;-45
2022/09/19 11:56:48;;;;;;;2.17;1.53;;;15.80;71.10;;;;;;5060038;28;20458;-46
2022/09/19 11:59:30;;;;;;;3.63;1.60;;;15.80;71.30;;;;;;5062525;28;20454;-46
2022/09/19 12:02:14;;;;;;;6.70;1.80;;;15.80;73.00;;;;;;5070869;28;20762;-46
2022/09/19 12:04:52;;;;;;;5.27;1.73;;;15.80;73.10;;;;;;5072581;28;21020;-45
2022/09/19 12:08:08;;;;;;;5.87;1.97;;;15.80;71.70;;;;;;5054505;28;20454;-45
2022/09/19 12:10:43;;;;;;;3.60;1.53;;;15.90;70.80;;;;;;5033323;28;20460;-46
2022/09/19 12:13:14;;;;;;;2.93;1.97;;;16.10;68.90;;;;;;5072433;28;20461;-46
2022/09/19 12:15:50;;;;;;;6.63;2.47;;;16.10;69.90;;;;;;5077742;28;20449;-46
2022/09/19 12:18:36;;;;;;;4.40;1.40;;;16.10;70.60;;;;;;5060302;28;20506;-46
2022/09/19 12:21:04;;;;;;;3.00;1.50;;;16.20;70.40;;;;;;5075739;28;20970;-46
2022/09/19 12:26:55;;;;;;;3.20;1.30;;;16.10;70.20;;;;;;5072334;28;20457;-45
2022/09/19 12:29:42;;;;;;;5.83;1.50;;;16.20;69.90;;;;;;5056720;28;20534;-45
2022/09/19 12:32:31;;;;;;;2.50;1.00;;;16.20;67.60;;;;;;5055816;28;20937;-46
2022/09/19 12:35:01;;;;;;;3.50;1.10;;;16.20;67.50;;;;;;5072532;28;20470;-46
2022/09/19 12:37:47;;;;;;;2.20;1.00;;;16.20;67.20;;;;;;5070727;28;20548;-45
2022/09/19 12:40:52;;;;;;;3.97;1.30;;;16.30;67.70;;;;;;5074521;28;20561;-45
2022/09/19 12:43:32;;;;;;;3.40;1.60;;;16.30;70.40;;;;;;5072094;28;20517;-46
2022/09/19 12:46:41;;;;;;;3.33;1.20;;;16.30;71.40;;;;;;5059539;28;20472;-45
2022/09/19 12:49:28;;;;;;;2.63;1.40;;;16.30;71.90;;;;;;5074945;28;20500;-46
2022/09/19 12:52:13;;;;;;;4.20;0.87;;;16.40;71.30;;;;;;5076708;28;20469;-46
2022/09/19 12:54:52;;;;;;;6.00;1.70;;;16.40;70.80;;;;;;5075760;28;20486;-46
2022/09/19 12:57:42;;;;;;;2.60;1.00;;;16.50;70.20;;;;;;5059375;28;21025;-46
2022/09/19 13:00:13;;;;;;;2.93;1.00;;;16.50;70.50;;;;;;5069690;28;20869;-46
2022/09/19 13:02:47;;;;;;;1.50;0.80;;;16.50;70.70;;;;;;5077837;28;22700;-46
2022/09/19 13:05:22;;;;;;;3.00;1.33;;;16.50;71.10;;;;;;5074122;28;22385;-46
2022/09/19 13:07:51;;;;;;;5.57;1.30;;;16.50;71.50;;;;;;5074085;28;20467;-45
2022/09/19 13:10:38;;;;;;;4.47;1.40;;;16.50;71.40;;;;;;5075420;28;20934;-46
2022/09/19 13:13:05;;;;;;;5.77;1.47;;;16.50;71.80;;;;;;5074063;28;20461;-46
2022/09/19 13:15:48;;;;;;;4.47;1.37;;;16.50;71.80;;;;;;5073022;28;20549;-46
2022/09/19 13:23:57;;;;;;;2.30;1.00;;;16.60;70.80;;;;;;5060552;28;20480;-46
2022/09/19 13:26:35;;;;;;;2.70;1.47;;;16.60;71.00;;;;;;5059560;28;20452;-46
2022/09/19 13:29:26;;;;;;;3.37;1.50;;;16.60;71.90;;;;;;5075253;28;20467;-46
2022/09/19 13:31:55;;;;;;;2.93;1.80;;;16.60;71.60;;;;;;5040532;28;20559;-46
2022/09/19 13:34:40;;;;;;;4.23;1.20;;;16.70;71.60;;;;;;5058102;28;20467;-46
2022/09/19 13:37:25;;;;;;;2.77;1.57;;;16.70;71.60;;;;;;5075039;28;20477;-45
2022/09/19 13:40:18;;;;;;;2.50;1.53;;;16.70;71.40;;;;;;5058069;28;20472;-46
2022/09/19 13:43:10;;;;;;;3.70;1.40;;;16.70;71.20;;;;;;5079061;28;20488;-46
2022/09/19 13:45:47;;;;;;;2.77;1.33;;;16.80;71.20;;;;;;5056996;28;20530;-46